San Francisco, California
Current Conditions -  °F | °C
As of 9:56 AM on Monday 24 Nov 2014 (Local Time) from KSFO Reporting Station
Clear Clear  
Wind Chill: 14°   Ceiling: Unl
Heat Index: 14°   Visibility: 10mi
Dew Point:   Wind: 3mph
Humidity: 72%   Direction: 50°NE
Pressure: 30.41"   Gusts: NA
Location:  37.78°N, 122.42°W
Report Text: KSFO 241756Z 05003KT 10SM CLR 14/09 A3041 RMK AO2 SLP298 T01440094 10144 20083 51014
Loading
Personal Weather Stations






























Interactive Weather Map New forecast layout! Learn more

10-Day Weather Forecast

Advertisements
Track Severe Weather on mobile